sensor_id;sensor_type;location;lat;lon;timestamp;P1;durP1;ratioP1;P2;durP2;ratioP2
38085;SDS011;23896;50.678;10.924;2022-07-29T09:52:55;2.08;;;1.98;;
38085;SDS011;23896;50.678;10.924;2022-07-29T09:55:23;3.33;;;2.15;;
38085;SDS011;23896;50.678;10.924;2022-07-29T09:57:49;7.38;;;2.70;;
38085;SDS011;23896;50.678;10.924;2022-07-29T10:00:16;5.00;;;2.40;;
38085;SDS011;23896;50.678;10.924;2022-07-29T10:02:44;4.80;;;2.50;;
38085;SDS011;23896;50.678;10.924;2022-07-29T10:05:18;3.00;;;2.22;;
38085;SDS011;23896;50.678;10.924;2022-07-29T10:07:46;2.35;;;2.15;;
38085;SDS011;23896;50.678;10.924;2022-07-29T10:10:23;4.28;;;2.80;;
38085;SDS011;23896;50.678;10.924;2022-07-29T10:13:00;3.08;;;2.65;;
38085;SDS011;23896;50.678;10.924;2022-07-29T10:15:27;7.05;;;2.60;;
38085;SDS011;23896;50.678;10.924;2022-07-29T10:17:55;4.30;;;2.42;;
38085;SDS011;23896;50.678;10.924;2022-07-29T10:20:22;5.47;;;2.58;;
38085;SDS011;23896;50.678;10.924;2022-07-29T10:22:52;6.13;;;2.47;;
38085;SDS011;23896;50.678;10.924;2022-07-29T10:25:19;5.53;;;2.40;;
38085;SDS011;23896;50.678;10.924;2022-07-29T10:27:46;2.53;;;2.30;;
38085;SDS011;23896;50.678;10.924;2022-07-29T10:30:15;4.22;;;2.78;;
38085;SDS011;23896;50.678;10.924;2022-07-29T10:33:05;6.32;;;2.75;;
38085;SDS011;23896;50.678;10.924;2022-07-29T10:35:40;6.03;;;2.30;;
38085;SDS011;23896;50.678;10.924;2022-07-29T10:38:30;6.22;;;2.20;;
38085;SDS011;23896;50.678;10.924;2022-07-29T10:44:35;3.80;;;2.17;;
38085;SDS011;23896;50.678;10.924;2022-07-29T10:46:42;5.97;;;2.20;;
38085;SDS011;23896;50.678;10.924;2022-07-29T10:49:13;2.85;;;2.55;;
38085;SDS011;23896;50.678;10.924;2022-07-29T10:54:53;3.67;;;2.42;;
38085;SDS011;23896;50.678;10.924;2022-07-29T10:57:20;4.78;;;2.63;;
38085;SDS011;23896;50.678;10.924;2022-07-29T10:59:47;3.88;;;2.40;;
38085;SDS011;23896;50.678;10.924;2022-07-29T11:05:03;7.10;;;2.80;;
38085;SDS011;23896;50.678;10.924;2022-07-29T11:07:31;5.88;;;2.60;;
38085;SDS011;23896;50.678;10.924;2022-07-29T11:15:08;7.35;;;3.45;;
38085;SDS011;23896;50.678;10.924;2022-07-29T11:25:45;4.90;;;3.33;;
38085;SDS011;23896;50.678;10.924;2022-07-29T11:28:19;5.55;;;3.50;;
38085;SDS011;23896;50.678;10.924;2022-07-29T11:30:51;4.30;;;3.80;;
38085;SDS011;23896;50.678;10.924;2022-07-29T11:33:27;4.22;;;3.63;;
38085;SDS011;23896;50.678;10.924;2022-07-29T11:36:07;8.40;;;3.85;;
38085;SDS011;23896;50.678;10.924;2022-07-29T11:38:35;7.28;;;4.20;;
38085;SDS011;23896;50.678;10.924;2022-07-29T11:43:47;7.63;;;3.95;;
38085;SDS011;23896;50.678;10.924;2022-07-29T11:46:14;3.35;;;3.05;;
38085;SDS011;23896;50.678;10.924;2022-07-29T11:48:43;7.60;;;3.83;;
38085;SDS011;23896;50.678;10.924;2022-07-29T11:51:11;4.47;;;3.28;;
38085;SDS011;23896;50.678;10.924;2022-07-29T11:53:38;12.73;;;11.38;;
38085;SDS011;23896;50.678;10.924;2022-07-29T11:56:07;13.80;;;6.18;;
38085;SDS011;23896;50.678;10.924;2022-07-29T11:58:34;4.63;;;3.13;;
38085;SDS011;23896;50.678;10.924;2022-07-29T12:01:02;5.70;;;4.03;;
38085;SDS011;23896;50.678;10.924;2022-07-29T12:03:32;4.30;;;3.90;;
38085;SDS011;23896;50.678;10.924;2022-07-29T12:05:59;3.63;;;3.28;;
38085;SDS011;23896;50.678;10.924;2022-07-29T12:08:26;5.00;;;3.50;;
38085;SDS011;23896;50.678;10.924;2022-07-29T12:10:52;7.00;;;4.10;;
38085;SDS011;23896;50.678;10.924;2022-07-29T12:13:21;5.60;;;3.85;;
38085;SDS011;23896;50.678;10.924;2022-07-29T12:15:53;6.68;;;3.70;;
38085;SDS011;23896;50.678;10.924;2022-07-29T12:18:19;6.25;;;4.05;;
38085;SDS011;23896;50.678;10.924;2022-07-29T12:20:47;3.67;;;3.22;;
38085;SDS011;23896;50.678;10.924;2022-07-29T12:23:14;5.82;;;3.10;;
38085;SDS011;23896;50.678;10.924;2022-07-29T12:25:42;4.47;;;3.22;;
38085;SDS011;23896;50.678;10.924;2022-07-29T12:28:15;5.90;;;3.10;;
38085;SDS011;23896;50.678;10.924;2022-07-29T12:30:53;7.00;;;3.47;;
38085;SDS011;23896;50.678;10.924;2022-07-29T12:35:47;4.22;;;2.58;;
38085;SDS011;23896;50.678;10.924;2022-07-29T12:38:14;10.00;;;2.78;;
38085;SDS011;23896;50.678;10.924;2022-07-29T12:40:41;7.25;;;3.30;;
38085;SDS011;23896;50.678;10.924;2022-07-29T12:43:09;6.25;;;3.08;;
38085;SDS011;23896;50.678;10.924;2022-07-29T12:45:36;7.22;;;2.97;;
38085;SDS011;23896;50.678;10.924;2022-07-29T12:48:03;3.42;;;2.90;;
38085;SDS011;23896;50.678;10.924;2022-07-29T12:50:30;3.08;;;2.63;;
38085;SDS011;23896;50.678;10.924;2022-07-29T12:53:10;4.95;;;2.80;;
38085;SDS011;23896;50.678;10.924;2022-07-29T12:58:06;2.97;;;2.50;;
38085;SDS011;23896;50.678;10.924;2022-07-29T13:00:33;5.28;;;2.70;;
38085;SDS011;23896;50.678;10.924;2022-07-29T13:03:00;4.63;;;3.13;;
38085;SDS011;23896;50.678;10.924;2022-07-29T13:05:43;4.43;;;3.17;;
38085;SDS011;23896;50.678;10.924;2022-07-29T13:08:11;3.92;;;2.70;;
38085;SDS011;23896;50.678;10.924;2022-07-29T13:10:37;11.60;;;2.80;;
38085;SDS011;23896;50.678;10.924;2022-07-29T13:13:08;3.65;;;2.67;;
38085;SDS011;23896;50.678;10.924;2022-07-29T13:15:45;4.10;;;2.97;;
38085;SDS011;23896;50.678;10.924;2022-07-29T13:18:31;7.75;;;3.00;;
38085;SDS011;23896;50.678;10.924;2022-07-29T13:20:58;5.82;;;2.90;;
38085;SDS011;23896;50.678;10.924;2022-07-29T13:23:36;7.28;;;2.83;;
38085;SDS011;23896;50.678;10.924;2022-07-29T13:26:06;6.43;;;2.60;;
38085;SDS011;23896;50.678;10.924;2022-07-29T13:28:33;6.57;;;2.60;;
38085;SDS011;23896;50.678;10.924;2022-07-29T13:31:02;6.95;;;2.90;;
38085;SDS011;23896;50.678;10.924;2022-07-29T13:33:29;4.97;;;2.78;;
38085;SDS011;23896;50.678;10.924;2022-07-29T13:35:56;5.57;;;2.95;;
38085;SDS011;23896;50.678;10.924;2022-07-29T13:38:23;4.95;;;2.72;;
38085;SDS011;23896;50.678;10.924;2022-07-29T13:40:49;7.13;;;2.78;;
38085;SDS011;23896;50.678;10.924;2022-07-29T13:43:16;2.92;;;2.47;;
38085;SDS011;23896;50.678;10.924;2022-07-29T13:45:42;2.95;;;2.70;;
38085;SDS011;23896;50.678;10.924;2022-07-29T13:48:09;5.43;;;3.20;;
38085;SDS011;23896;50.678;10.924;2022-07-29T13:50:36;6.50;;;2.40;;
38085;SDS011;23896;50.678;10.924;2022-07-29T13:53:02;3.97;;;2.90;;
38085;SDS011;23896;50.678;10.924;2022-07-29T13:55:29;4.40;;;2.40;;
38085;SDS011;23896;50.678;10.924;2022-07-29T13:57:55;4.25;;;2.78;;
38085;SDS011;23896;50.678;10.924;2022-07-29T14:00:22;2.85;;;2.25;;
38085;SDS011;23896;50.678;10.924;2022-07-29T14:02:49;5.55;;;2.80;;
38085;SDS011;23896;50.678;10.924;2022-07-29T14:05:15;2.45;;;2.22;;
38085;SDS011;23896;50.678;10.924;2022-07-29T14:07:41;6.57;;;2.28;;
38085;SDS011;23896;50.678;10.924;2022-07-29T14:10:08;4.82;;;3.67;;
38085;SDS011;23896;50.678;10.924;2022-07-29T14:12:35;5.38;;;4.50;;
38085;SDS011;23896;50.678;10.924;2022-07-29T14:15:01;6.07;;;2.60;;
38085;SDS011;23896;50.678;10.924;2022-07-29T14:17:28;3.35;;;2.92;;
38085;SDS011;23896;50.678;10.924;2022-07-29T14:19:54;3.85;;;2.80;;
38085;SDS011;23896;50.678;10.924;2022-07-29T14:22:20;4.88;;;2.35;;
38085;SDS011;23896;50.678;10.924;2022-07-29T14:24:53;6.45;;;3.28;;
38085;SDS011;23896;50.678;10.924;2022-07-29T14:27:28;3.63;;;3.33;;
38085;SDS011;23896;50.678;10.924;2022-07-29T14:29:55;2.85;;;2.42;;
38085;SDS011;23896;50.678;10.924;2022-07-29T14:32:21;2.70;;;2.50;;
38085;SDS011;23896;50.678;10.924;2022-07-29T14:34:50;4.90;;;2.10;;
38085;SDS011;23896;50.678;10.924;2022-07-29T14:37:16;5.75;;;4.20;;
38085;SDS011;23896;50.678;10.924;2022-07-29T14:39:43;5.43;;;4.50;;
38085;SDS011;23896;50.678;10.924;2022-07-29T14:42:10;5.05;;;3.42;;
38085;SDS011;23896;50.678;10.924;2022-07-29T14:44:38;3.10;;;2.80;;
38085;SDS011;23896;50.678;10.924;2022-07-29T14:47:04;3.88;;;2.50;;
38085;SDS011;23896;50.678;10.924;2022-07-29T14:49:31;4.25;;;2.78;;
38085;SDS011;23896;50.678;10.924;2022-07-29T14:51:57;3.63;;;2.53;;
38085;SDS011;23896;50.678;10.924;2022-07-29T14:54:24;3.80;;;2.50;;
38085;SDS011;23896;50.678;10.924;2022-07-29T14:56:50;4.68;;;2.58;;
38085;SDS011;23896;50.678;10.924;2022-07-29T14:59:20;2.95;;;2.65;;
38085;SDS011;23896;50.678;10.924;2022-07-29T15:01:46;5.57;;;2.63;;
38085;SDS011;23896;50.678;10.924;2022-07-29T15:04:13;2.63;;;2.42;;
38085;SDS011;23896;50.678;10.924;2022-07-29T15:06:39;5.13;;;3.40;;
38085;SDS011;23896;50.678;10.924;2022-07-29T15:09:06;5.88;;;3.80;;
38085;SDS011;23896;50.678;10.924;2022-07-29T15:11:35;6.38;;;3.67;;
38085;SDS011;23896;50.678;10.924;2022-07-29T15:14:04;5.85;;;3.03;;
38085;SDS011;23896;50.678;10.924;2022-07-29T15:16:31;3.35;;;2.90;;
38085;SDS011;23896;50.678;10.924;2022-07-29T15:18:57;3.75;;;2.88;;
38085;SDS011;23896;50.678;10.924;2022-07-29T15:21:24;3.35;;;2.78;;
38085;SDS011;23896;50.678;10.924;2022-07-29T15:23:50;3.97;;;3.00;;
38085;SDS011;23896;50.678;10.924;2022-07-29T15:26:17;5.35;;;3.05;;
38085;SDS011;23896;50.678;10.924;2022-07-29T15:28:47;3.50;;;3.00;;
38085;SDS011;23896;50.678;10.924;2022-07-29T15:31:13;11.13;;;10.00;;
38085;SDS011;23896;50.678;10.924;2022-07-29T15:33:39;15.85;;;14.23;;
38085;SDS011;23896;50.678;10.924;2022-07-29T15:36:06;5.22;;;3.45;;
38085;SDS011;23896;50.678;10.924;2022-07-29T15:38:33;3.35;;;2.60;;
38085;SDS011;23896;50.678;10.924;2022-07-29T15:41:02;5.68;;;3.42;;
38085;SDS011;23896;50.678;10.924;2022-07-29T15:43:28;5.97;;;3.00;;
38085;SDS011;23896;50.678;10.924;2022-07-29T15:45:55;6.40;;;3.30;;
38085;SDS011;23896;50.678;10.924;2022-07-29T15:48:40;5.93;;;3.78;;
38085;SDS011;23896;50.678;10.924;2022-07-29T15:51:06;7.90;;;4.07;;
38085;SDS011;23896;50.678;10.924;2022-07-29T15:53:33;6.30;;;4.40;;
38085;SDS011;23896;50.678;10.924;2022-07-29T15:55:59;4.53;;;4.00;;
38085;SDS011;23896;50.678;10.924;2022-07-29T15:58:26;4.43;;;3.95;;
38085;SDS011;23896;50.678;10.924;2022-07-29T16:00:53;6.03;;;4.40;;
38085;SDS011;23896;50.678;10.924;2022-07-29T16:03:19;6.82;;;4.25;;
38085;SDS011;23896;50.678;10.924;2022-07-29T16:05:48;7.78;;;4.30;;
38085;SDS011;23896;50.678;10.924;2022-07-29T16:08:15;9.40;;;4.65;;
38085;SDS011;23896;50.678;10.924;2022-07-29T16:10:42;7.47;;;4.72;;
38085;SDS011;23896;50.678;10.924;2022-07-29T16:13:09;5.60;;;4.30;;
38085;SDS011;23896;50.678;10.924;2022-07-29T16:15:35;10.75;;;4.53;;
38085;SDS011;23896;50.678;10.924;2022-07-29T16:18:02;4.65;;;4.25;;
38085;SDS011;23896;50.678;10.924;2022-07-29T16:20:29;8.70;;;4.65;;
38085;SDS011;23896;50.678;10.924;2022-07-29T16:22:58;5.05;;;4.18;;
38085;SDS011;23896;50.678;10.924;2022-07-29T16:25:26;6.03;;;4.75;;
38085;SDS011;23896;50.678;10.924;2022-07-29T16:27:52;7.03;;;3.67;;
38085;SDS011;23896;50.678;10.924;2022-07-29T16:30:19;8.15;;;4.90;;
38085;SDS011;23896;50.678;10.924;2022-07-29T16:32:47;7.10;;;4.68;;
38085;SDS011;23896;50.678;10.924;2022-07-29T16:35:19;6.88;;;4.38;;
38085;SDS011;23896;50.678;10.924;2022-07-29T16:37:59;8.45;;;4.10;;
38085;SDS011;23896;50.678;10.924;2022-07-29T16:40:25;7.78;;;4.53;;
38085;SDS011;23896;50.678;10.924;2022-07-29T16:42:52;4.78;;;4.03;;
38085;SDS011;23896;50.678;10.924;2022-07-29T16:45:22;5.15;;;4.03;;
38085;SDS011;23896;50.678;10.924;2022-07-29T16:47:48;4.95;;;4.13;;
38085;SDS011;23896;50.678;10.924;2022-07-29T16:50:14;5.85;;;4.63;;
38085;SDS011;23896;50.678;10.924;2022-07-29T16:52:41;4.53;;;4.13;;
38085;SDS011;23896;50.678;10.924;2022-07-29T16:55:07;6.55;;;5.30;;
38085;SDS011;23896;50.678;10.924;2022-07-29T16:57:34;4.65;;;4.25;;
38085;SDS011;23896;50.678;10.924;2022-07-29T17:00:00;5.47;;;4.78;;
38085;SDS011;23896;50.678;10.924;2022-07-29T17:02:28;5.10;;;4.60;;
38085;SDS011;23896;50.678;10.924;2022-07-29T17:04:55;4.63;;;4.18;;
38085;SDS011;23896;50.678;10.924;2022-07-29T17:07:21;6.53;;;3.97;;
38085;SDS011;23896;50.678;10.924;2022-07-29T17:09:48;5.10;;;4.07;;
38085;SDS011;23896;50.678;10.924;2022-07-29T17:12:14;10.57;;;4.20;;
38085;SDS011;23896;50.678;10.924;2022-07-29T17:14:41;4.30;;;3.95;;
38085;SDS011;23896;50.678;10.924;2022-07-29T17:17:07;4.72;;;4.10;;
38085;SDS011;23896;50.678;10.924;2022-07-29T17:19:37;4.43;;;4.03;;
38085;SDS011;23896;50.678;10.924;2022-07-29T17:22:04;4.30;;;3.90;;
38085;SDS011;23896;50.678;10.924;2022-07-29T17:24:31;5.45;;;3.95;;
38085;SDS011;23896;50.678;10.924;2022-07-29T17:26:57;7.40;;;4.43;;
38085;SDS011;23896;50.678;10.924;2022-07-29T17:29:24;4.97;;;4.18;;
38085;SDS011;23896;50.678;10.924;2022-07-29T17:31:50;4.95;;;4.45;;
38085;SDS011;23896;50.678;10.924;2022-07-29T17:34:17;4.20;;;3.90;;
38085;SDS011;23896;50.678;10.924;2022-07-29T17:36:44;3.92;;;3.60;;
38085;SDS011;23896;50.678;10.924;2022-07-29T17:39:11;3.63;;;3.33;;
38085;SDS011;23896;50.678;10.924;2022-07-29T17:41:37;8.75;;;3.88;;
38085;SDS011;23896;50.678;10.924;2022-07-29T17:44:09;4.43;;;3.63;;
38085;SDS011;23896;50.678;10.924;2022-07-29T17:46:36;4.75;;;3.53;;
38085;SDS011;23896;50.678;10.924;2022-07-29T17:49:04;3.85;;;2.65;;
38085;SDS011;23896;50.678;10.924;2022-07-29T17:51:31;2.65;;;2.38;;
38085;SDS011;23896;50.678;10.924;2022-07-29T17:53:58;4.05;;;2.60;;
38085;SDS011;23896;50.678;10.924;2022-07-29T17:56:24;2.85;;;2.63;;
38085;SDS011;23896;50.678;10.924;2022-07-29T17:58:51;3.70;;;2.92;;
38085;SDS011;23896;50.678;10.924;2022-07-29T18:01:17;3.30;;;2.88;;
38085;SDS011;23896;50.678;10.924;2022-07-29T18:03:44;4.32;;;2.47;;
38085;SDS011;23896;50.678;10.924;2022-07-29T18:06:11;3.22;;;2.90;;
38085;SDS011;23896;50.678;10.924;2022-07-29T18:08:37;3.20;;;2.85;;
38085;SDS011;23896;50.678;10.924;2022-07-29T18:11:04;2.80;;;2.60;;
38085;SDS011;23896;50.678;10.924;2022-07-29T18:13:31;4.60;;;2.55;;
38085;SDS011;23896;50.678;10.924;2022-07-29T18:15:57;3.22;;;3.03;;
38085;SDS011;23896;50.678;10.924;2022-07-29T18:18:23;5.05;;;3.08;;
38085;SDS011;23896;50.678;10.924;2022-07-29T18:20:50;3.67;;;3.30;;
38085;SDS011;23896;50.678;10.924;2022-07-29T18:23:16;4.75;;;3.30;;
38085;SDS011;23896;50.678;10.924;2022-07-29T18:25:48;3.10;;;2.80;;
38085;SDS011;23896;50.678;10.924;2022-07-29T18:28:15;3.15;;;2.80;;
38085;SDS011;23896;50.678;10.924;2022-07-29T18:30:45;3.55;;;2.75;;
38085;SDS011;23896;50.678;10.924;2022-07-29T18:33:13;3.88;;;2.72;;
38085;SDS011;23896;50.678;10.924;2022-07-29T18:35:47;2.70;;;2.50;;
38085;SDS011;23896;50.678;10.924;2022-07-29T18:38:13;2.38;;;2.17;;
38085;SDS011;23896;50.678;10.924;2022-07-29T18:40:40;5.95;;;3.65;;
38085;SDS011;23896;50.678;10.924;2022-07-29T18:43:07;2.50;;;2.30;;
38085;SDS011;23896;50.678;10.924;2022-07-29T18:45:34;2.80;;;2.60;;
38085;SDS011;23896;50.678;10.924;2022-07-29T18:48:00;2.50;;;2.30;;
38085;SDS011;23896;50.678;10.924;2022-07-29T18:50:27;2.85;;;2.58;;
38085;SDS011;23896;50.678;10.924;2022-07-29T18:52:57;2.60;;;2.22;;
38085;SDS011;23896;50.678;10.924;2022-07-29T18:55:26;6.22;;;2.92;;
38085;SDS011;23896;50.678;10.924;2022-07-29T18:57:53;3.28;;;2.97;;
38085;SDS011;23896;50.678;10.924;2022-07-29T19:00:20;2.80;;;2.55;;
38085;SDS011;23896;50.678;10.924;2022-07-29T19:02:48;2.88;;;2.45;;
38085;SDS011;23896;50.678;10.924;2022-07-29T19:05:17;3.22;;;2.78;;
38085;SDS011;23896;50.678;10.924;2022-07-29T19:07:44;3.50;;;3.20;;
38085;SDS011;23896;50.678;10.924;2022-07-29T19:10:10;7.00;;;2.67;;
38085;SDS011;23896;50.678;10.924;2022-07-29T19:12:37;5.80;;;2.80;;
38085;SDS011;23896;50.678;10.924;2022-07-29T19:15:07;2.78;;;2.58;;
38085;SDS011;23896;50.678;10.924;2022-07-29T19:17:34;4.68;;;3.28;;
38085;SDS011;23896;50.678;10.924;2022-07-29T19:20:02;3.80;;;2.08;;
38085;SDS011;23896;50.678;10.924;2022-07-29T19:22:29;2.50;;;2.30;;
38085;SDS011;23896;50.678;10.924;2022-07-29T19:24:55;2.53;;;2.33;;
38085;SDS011;23896;50.678;10.924;2022-07-29T19:27:22;1.90;;;1.80;;
38085;SDS011;23896;50.678;10.924;2022-07-29T19:29:50;2.03;;;1.83;;
38085;SDS011;23896;50.678;10.924;2022-07-29T19:32:17;1.95;;;1.80;;
38085;SDS011;23896;50.678;10.924;2022-07-29T19:34:43;1.67;;;1.58;;
38085;SDS011;23896;50.678;10.924;2022-07-29T19:37:30;2.28;;;1.58;;
38085;SDS011;23896;50.678;10.924;2022-07-29T19:39:56;1.20;;;1.20;;
38085;SDS011;23896;50.678;10.924;2022-07-29T19:42:23;1.63;;;1.50;;
38085;SDS011;23896;50.678;10.924;2022-07-29T19:44:50;2.08;;;1.70;;
38085;SDS011;23896;50.678;10.924;2022-07-29T19:47:16;1.88;;;1.77;;
38085;SDS011;23896;50.678;10.924;2022-07-29T19:49:43;1.75;;;1.65;;
38085;SDS011;23896;50.678;10.924;2022-07-29T19:52:09;1.77;;;1.67;;
38085;SDS011;23896;50.678;10.924;2022-07-29T19:54:36;2.05;;;1.92;;
38085;SDS011;23896;50.678;10.924;2022-07-29T19:57:02;1.70;;;1.60;;
38085;SDS011;23896;50.678;10.924;2022-07-29T19:59:32;2.15;;;1.70;;
38085;SDS011;23896;50.678;10.924;2022-07-29T20:01:59;1.98;;;1.88;;
38085;SDS011;23896;50.678;10.924;2022-07-29T20:04:25;4.13;;;2.00;;
38085;SDS011;23896;50.678;10.924;2022-07-29T20:06:52;1.92;;;1.73;;
38085;SDS011;23896;50.678;10.924;2022-07-29T20:09:22;2.35;;;2.15;;
38085;SDS011;23896;50.678;10.924;2022-07-29T20:11:48;1.45;;;1.35;;
38085;SDS011;23896;50.678;10.924;2022-07-29T20:14:15;1.52;;;1.42;;
38085;SDS011;23896;50.678;10.924;2022-07-29T20:16:41;1.40;;;1.30;;
38085;SDS011;23896;50.678;10.924;2022-07-29T20:19:08;3.50;;;3.28;;
38085;SDS011;23896;50.678;10.924;2022-07-29T20:21:35;2.08;;;1.88;;
38085;SDS011;23896;50.678;10.924;2022-07-29T20:24:02;1.50;;;1.40;;
38085;SDS011;23896;50.678;10.924;2022-07-29T20:26:29;2.20;;;2.10;;
38085;SDS011;23896;50.678;10.924;2022-07-29T20:28:56;2.55;;;1.88;;
38085;SDS011;23896;50.678;10.924;2022-07-29T20:31:23;1.80;;;1.70;;
38085;SDS011;23896;50.678;10.924;2022-07-29T20:33:52;1.35;;;1.27;;
38085;SDS011;23896;50.678;10.924;2022-07-29T20:36:18;1.38;;;1.27;;
38085;SDS011;23896;50.678;10.924;2022-07-29T20:38:45;1.95;;;1.85;;
38085;SDS011;23896;50.678;10.924;2022-07-29T20:41:11;1.42;;;1.08;;
38085;SDS011;23896;50.678;10.924;2022-07-29T20:43:39;1.23;;;1.13;;
38085;SDS011;23896;50.678;10.924;2022-07-29T20:46:05;3.53;;;3.22;;
38085;SDS011;23896;50.678;10.924;2022-07-29T20:48:32;2.38;;;2.17;;
38085;SDS011;23896;50.678;10.924;2022-07-29T20:50:59;2.60;;;2.40;;
38085;SDS011;23896;50.678;10.924;2022-07-29T20:53:25;4.30;;;3.97;;
38085;SDS011;23896;50.678;10.924;2022-07-29T20:55:52;2.65;;;1.63;;
38085;SDS011;23896;50.678;10.924;2022-07-29T20:58:19;1.92;;;1.30;;
38085;SDS011;23896;50.678;10.924;2022-07-29T21:00:48;5.50;;;5.10;;
38085;SDS011;23896;50.678;10.924;2022-07-29T21:03:15;3.22;;;3.03;;
38085;SDS011;23896;50.678;10.924;2022-07-29T21:05:42;2.00;;;1.90;;
38085;SDS011;23896;50.678;10.924;2022-07-29T21:08:09;1.25;;;1.20;;
38085;SDS011;23896;50.678;10.924;2022-07-29T21:10:36;2.22;;;2.13;;
38085;SDS011;23896;50.678;10.924;2022-07-29T21:13:03;2.65;;;2.45;;
38085;SDS011;23896;50.678;10.924;2022-07-29T21:15:29;1.50;;;1.30;;
38085;SDS011;23896;50.678;10.924;2022-07-29T21:18:02;2.20;;;2.00;;
38085;SDS011;23896;50.678;10.924;2022-07-29T21:20:40;1.58;;;1.48;;
38085;SDS011;23896;50.678;10.924;2022-07-29T21:23:07;8.73;;;7.93;;
38085;SDS011;23896;50.678;10.924;2022-07-29T21:25:33;4.55;;;4.18;;
38085;SDS011;23896;50.678;10.924;2022-07-29T21:28:00;8.43;;;7.65;;
38085;SDS011;23896;50.678;10.924;2022-07-29T21:30:48;7.13;;;6.40;;
38085;SDS011;23896;50.678;10.924;2022-07-29T21:33:15;5.28;;;4.75;;
38085;SDS011;23896;50.678;10.924;2022-07-29T21:35:44;1.60;;;1.50;;
38085;SDS011;23896;50.678;10.924;2022-07-29T21:38:14;1.05;;;1.05;;
38085;SDS011;23896;50.678;10.924;2022-07-29T21:40:45;1.20;;;1.10;;
38085;SDS011;23896;50.678;10.924;2022-07-29T21:43:14;1.60;;;1.50;;
38085;SDS011;23896;50.678;10.924;2022-07-29T21:45:44;1.25;;;1.15;;
38085;SDS011;23896;50.678;10.924;2022-07-29T21:48:31;1.77;;;1.67;;
38085;SDS011;23896;50.678;10.924;2022-07-29T21:50:57;0.98;;;0.98;;
38085;SDS011;23896;50.678;10.924;2022-07-29T21:53:23;1.52;;;1.42;;
38085;SDS011;23896;50.678;10.924;2022-07-29T21:55:50;3.45;;;3.15;;
38085;SDS011;23896;50.678;10.924;2022-07-29T21:58:18;2.50;;;2.30;;
38085;SDS011;23896;50.678;10.924;2022-07-29T22:00:46;6.53;;;3.78;;
38085;SDS011;23896;50.678;10.924;2022-07-29T22:03:13;1.40;;;1.30;;
38085;SDS011;23896;50.678;10.924;2022-07-29T22:05:39;7.00;;;6.45;;
38085;SDS011;23896;50.678;10.924;2022-07-29T22:08:06;4.22;;;3.92;;
38085;SDS011;23896;50.678;10.924;2022-07-29T22:10:33;2.00;;;1.80;;
38085;SDS011;23896;50.678;10.924;2022-07-29T22:13:00;3.70;;;3.40;;
38085;SDS011;23896;50.678;10.924;2022-07-29T22:15:27;2.88;;;1.90;;
38085;SDS011;23896;50.678;10.924;2022-07-29T22:17:54;2.97;;;1.63;;
38085;SDS011;23896;50.678;10.924;2022-07-29T22:20:21;3.88;;;3.58;;
38085;SDS011;23896;50.678;10.924;2022-07-29T22:22:50;4.05;;;3.10;;
38085;SDS011;23896;50.678;10.924;2022-07-29T22:25:17;9.93;;;9.02;;
38085;SDS011;23896;50.678;10.924;2022-07-29T22:27:43;8.43;;;7.45;;
38085;SDS011;23896;50.678;10.924;2022-07-29T22:30:10;2.90;;;2.55;;
38085;SDS011;23896;50.678;10.924;2022-07-29T22:32:37;6.63;;;5.90;;
38085;SDS011;23896;50.678;10.924;2022-07-29T22:35:04;5.95;;;5.43;;
38085;SDS011;23896;50.678;10.924;2022-07-29T22:37:30;3.78;;;3.47;;
38085;SDS011;23896;50.678;10.924;2022-07-29T22:39:57;2.60;;;2.30;;
38085;SDS011;23896;50.678;10.924;2022-07-29T22:42:24;4.40;;;4.10;;
38085;SDS011;23896;50.678;10.924;2022-07-29T22:44:50;4.03;;;3.50;;
38085;SDS011;23896;50.678;10.924;2022-07-29T22:47:17;9.85;;;8.85;;
38085;SDS011;23896;50.678;10.924;2022-07-29T22:49:44;24.88;;;22.17;;
38085;SDS011;23896;50.678;10.924;2022-07-29T22:52:10;31.23;;;27.77;;
38085;SDS011;23896;50.678;10.924;2022-07-29T22:54:40;12.63;;;11.40;;
38085;SDS011;23896;50.678;10.924;2022-07-29T22:57:07;12.93;;;11.63;;
38085;SDS011;23896;50.678;10.924;2022-07-29T22:59:33;14.90;;;10.07;;
38085;SDS011;23896;50.678;10.924;2022-07-29T23:02:02;6.82;;;6.18;;
38085;SDS011;23896;50.678;10.924;2022-07-29T23:04:29;7.90;;;7.20;;
38085;SDS011;23896;50.678;10.924;2022-07-29T23:06:55;2.40;;;2.20;;
38085;SDS011;23896;50.678;10.924;2022-07-29T23:09:24;1.50;;;1.40;;
38085;SDS011;23896;50.678;10.924;2022-07-29T23:11:51;2.85;;;2.42;;
38085;SDS011;23896;50.678;10.924;2022-07-29T23:14:17;3.65;;;3.35;;
38085;SDS011;23896;50.678;10.924;2022-07-29T23:16:45;7.25;;;4.50;;
38085;SDS011;23896;50.678;10.924;2022-07-29T23:19:12;9.65;;;8.65;;
38085;SDS011;23896;50.678;10.924;2022-07-29T23:21:39;4.50;;;4.10;;
38085;SDS011;23896;50.678;10.924;2022-07-29T23:24:05;12.00;;;10.73;;
38085;SDS011;23896;50.678;10.924;2022-07-29T23:26:32;11.73;;;10.52;;
38085;SDS011;23896;50.678;10.924;2022-07-29T23:29:01;18.65;;;16.15;;
38085;SDS011;23896;50.678;10.924;2022-07-29T23:31:27;18.85;;;16.85;;
38085;SDS011;23896;50.678;10.924;2022-07-29T23:33:54;7.00;;;6.40;;
38085;SDS011;23896;50.678;10.924;2022-07-29T23:36:21;11.38;;;10.38;;
38085;SDS011;23896;50.678;10.924;2022-07-29T23:38:47;8.60;;;7.70;;
38085;SDS011;23896;50.678;10.924;2022-07-29T23:41:14;6.70;;;6.10;;
38085;SDS011;23896;50.678;10.924;2022-07-29T23:43:42;4.45;;;3.25;;
38085;SDS011;23896;50.678;10.924;2022-07-29T23:46:09;1.80;;;1.70;;
38085;SDS011;23896;50.678;10.924;2022-07-29T23:48:36;4.32;;;2.22;;
38085;SDS011;23896;50.678;10.924;2022-07-29T23:51:02;16.13;;;14.30;;
38085;SDS011;23896;50.678;10.924;2022-07-29T23:56:27;3.90;;;3.53;;
38085;SDS011;23896;50.678;10.924;2022-07-29T23:58:53;2.17;;;2.08;;
